createdAt,value
2023-03-12T00:04:41.693Z,9.77
2023-03-12T00:09:45.749Z,8.05
2023-03-12T00:14:49.883Z,17.10
2023-03-12T00:19:53.338Z,10.40
2023-03-12T00:24:57.723Z,12.10
2023-03-12T00:30:02.045Z,8.85
2023-03-12T00:35:07.092Z,11.02
2023-03-12T00:40:11.492Z,9.57
2023-03-12T00:45:16.093Z,10.65
2023-03-12T00:50:18.988Z,10.05
2023-03-12T00:55:21.834Z,12.07
2023-03-12T01:00:26.376Z,17.80
2023-03-12T01:05:29.862Z,15.38
2023-03-12T01:10:32.921Z,21.02
2023-03-12T01:15:37.252Z,17.45
2023-03-12T01:20:41.230Z,21.92
2023-03-12T01:25:44.204Z,20.10
2023-03-12T01:30:48.676Z,19.05
2023-03-12T01:35:52.020Z,15.30
2023-03-12T01:40:54.906Z,14.63
2023-03-12T01:46:22.589Z,14.57
2023-03-12T01:51:28.193Z,15.52
2023-03-12T01:56:34.646Z,12.88
2023-03-12T02:01:39.627Z,15.93
2023-03-12T02:06:49.330Z,13.13
2023-03-12T02:11:52.451Z,20.08
2023-03-12T02:16:57.841Z,11.38
2023-03-12T02:22:00.992Z,14.05
2023-03-12T02:27:06.804Z,17.55
2023-03-12T02:32:17.112Z,14.93
2023-03-12T02:37:20.939Z,12.60
2023-03-12T02:42:25.656Z,11.13
2023-03-12T02:47:28.827Z,19.80
2023-03-12T02:52:35.561Z,10.75
2023-03-12T02:57:40.424Z,12.32
2023-03-12T03:02:47.211Z,12.00
2023-03-12T03:07:50.402Z,11.32
2023-03-12T03:12:54.650Z,15.02
2023-03-12T03:17:58.374Z,18.20
2023-03-12T03:23:01.491Z,11.68
2023-03-12T03:28:06.059Z,20.00
2023-03-12T03:33:08.838Z,16.27
2023-03-12T03:38:11.729Z,12.55
2023-03-12T03:43:16.172Z,12.95
2023-03-12T03:48:19.762Z,14.93
2023-03-12T03:53:22.665Z,12.38
2023-03-12T03:58:27.147Z,10.95
2023-03-12T04:03:30.730Z,15.70
2023-03-12T04:08:35.490Z,9.07
2023-03-12T04:13:40.425Z,17.63
2023-03-12T04:18:44.567Z,12.85
2023-03-12T04:23:48.003Z,10.50
2023-03-12T04:28:52.613Z,11.43
2023-03-12T04:33:55.722Z,12.98
2023-03-12T04:39:00.310Z,12.27
2023-03-12T04:44:11.536Z,10.85
2023-03-12T04:49:15.890Z,13.00
2023-03-12T04:54:20.981Z,14.40
2023-03-12T04:59:25.716Z,12.90
2023-03-12T05:04:31.874Z,10.80
2023-03-12T05:09:36.179Z,11.07
2023-03-12T05:14:40.641Z,13.10
2023-03-12T05:19:44.623Z,7.50
2023-03-12T05:24:47.679Z,6.32
2023-03-12T05:29:52.017Z,14.15
2023-03-12T05:34:56.543Z,9.50
2023-03-12T05:40:00.644Z,8.98
2023-03-12T05:45:06.120Z,13.02
2023-03-12T05:50:11.498Z,13.18
2023-03-12T05:55:14.718Z,11.60
2023-03-12T06:00:20.993Z,9.25
2023-03-12T06:05:31.697Z,11.13
2023-03-12T06:10:35.311Z,12.98
2023-03-12T06:15:39.554Z,12.50
2023-03-12T06:20:43.792Z,11.95
2023-03-12T06:25:47.184Z,10.20
2023-03-12T06:30:54.024Z,13.82
2023-03-12T06:35:57.690Z,12.10
2023-03-12T06:41:02.195Z,14.80
2023-03-12T06:46:08.109Z,15.15
2023-03-12T06:51:12.370Z,31.88
2023-03-12T06:56:15.501Z,15.75
2023-03-12T07:01:19.713Z,9.45
2023-03-12T07:06:23.996Z,15.88
2023-03-12T07:11:26.766Z,10.63
2023-03-12T07:16:31.421Z,8.05
2023-03-12T07:21:34.324Z,12.23
2023-03-12T07:26:37.253Z,9.80
2023-03-12T07:31:41.489Z,10.82
2023-03-12T07:36:44.432Z,12.95
2023-03-12T07:41:47.253Z,9.32
2023-03-12T07:46:51.753Z,8.93
2023-03-12T07:51:55.131Z,9.55
2023-03-12T07:56:58.068Z,10.02
2023-03-12T08:02:02.501Z,9.75
2023-03-12T08:07:08.006Z,12.98
2023-03-12T08:12:12.301Z,9.00
2023-03-12T08:17:16.586Z,6.93
2023-03-12T08:22:19.412Z,6.80
2023-03-12T08:27:22.238Z,11.50
2023-03-12T08:32:26.697Z,11.27
2023-03-12T08:37:30.303Z,9.45
2023-03-12T08:42:33.244Z,6.95
2023-03-12T08:47:37.437Z,7.45
2023-03-12T08:52:40.517Z,12.35
2023-03-12T08:57:43.382Z,7.97
2023-03-12T09:02:47.924Z,7.90
2023-03-12T09:07:50.700Z,7.82
2023-03-12T09:12:53.443Z,17.00
2023-03-12T09:17:57.817Z,8.90
2023-03-12T09:23:00.594Z,12.30
2023-03-12T09:28:03.452Z,11.98
2023-03-12T09:33:07.940Z,12.32
2023-03-12T09:38:14.739Z,13.07
2023-03-12T09:43:26.146Z,11.95
2023-03-12T09:48:34.618Z,7.55
2023-03-12T09:53:46.956Z,8.43
2023-03-12T09:58:54.528Z,5.72
2023-03-12T10:04:24.431Z,8.32
2023-03-12T10:09:40.769Z,9.88
2023-03-12T10:14:54.502Z,5.82
2023-03-12T10:20:18.576Z,9.35
2023-03-12T10:25:28.156Z,13.18
2023-03-12T10:30:33.117Z,7.38
2023-03-12T10:35:37.552Z,9.10
2023-03-12T10:40:41.960Z,13.63
2023-03-12T10:45:53.361Z,13.10
2023-03-12T10:51:06.115Z,14.68
2023-03-12T10:56:10.778Z,18.75
2023-03-12T11:01:21.326Z,7.32
2023-03-12T11:06:28.379Z,16.73
2023-03-12T11:11:38.540Z,13.82
2023-03-12T11:16:41.482Z,17.35
2023-03-12T11:21:56.844Z,14.43
2023-03-12T11:27:06.542Z,11.82
2023-03-12T11:32:17.927Z,14.90
2023-03-12T11:37:31.729Z,25.20
2023-03-12T11:42:52.058Z,20.10
2023-03-12T11:48:04.547Z,15.05
2023-03-12T11:53:31.389Z,14.77
2023-03-12T11:58:51.065Z,10.35
2023-03-12T12:04:09.841Z,12.02
2023-03-12T12:09:26.499Z,10.40
2023-03-12T12:14:49.640Z,7.75
2023-03-12T12:20:09.210Z,7.35
2023-03-12T12:25:30.072Z,10.90
2023-03-12T12:30:49.364Z,9.90
2023-03-12T12:35:52.389Z,12.20
2023-03-12T12:41:02.075Z,12.98
2023-03-12T12:46:07.524Z,11.63
2023-03-12T12:51:11.639Z,7.75
2023-03-12T12:56:23.899Z,11.68
2023-03-12T13:01:28.100Z,11.52
2023-03-12T13:06:58.513Z,11.18
2023-03-12T13:12:08.549Z,10.38
2023-03-12T13:17:24.239Z,11.40
2023-03-12T13:22:59.345Z,12.63
2023-03-12T13:28:30.317Z,11.63
2023-03-12T13:33:45.126Z,12.60
2023-03-12T13:38:56.853Z,14.93
2023-03-12T13:44:01.425Z,13.23
2023-03-12T13:49:10.985Z,13.45
2023-03-12T13:54:19.597Z,14.00
2023-03-12T13:59:25.786Z,15.50
2023-03-12T14:04:35.130Z,19.70
2023-03-12T14:09:45.438Z,19.13
2023-03-12T14:15:22.047Z,19.98
2023-03-12T14:20:25.808Z,25.65
2023-03-12T14:25:35.161Z,22.52
2023-03-12T14:30:49.642Z,26.92
2023-03-12T14:35:57.230Z,28.33
2023-03-12T14:41:05.725Z,29.95
2023-03-12T14:46:16.710Z,28.80
2023-03-12T14:51:24.924Z,31.08
2023-03-12T14:56:30.696Z,37.00
2023-03-12T15:01:39.402Z,36.20
2023-03-12T15:06:46.946Z,33.22
2023-03-12T15:11:55.562Z,23.83
2023-03-12T15:17:00.740Z,33.03
2023-03-12T15:22:05.140Z,32.45
2023-03-12T15:27:31.483Z,37.33
2023-03-12T15:32:35.684Z,39.97
2023-03-12T15:37:40.918Z,42.17
2023-03-12T15:42:47.086Z,48.58
2023-03-12T15:47:53.521Z,47.65
2023-03-12T15:53:02.196Z,52.85
2023-03-12T15:58:26.404Z,46.40
2023-03-12T16:03:30.517Z,46.97
2023-03-12T16:08:39.174Z,48.70
2023-03-12T16:13:43.599Z,43.15
2023-03-12T16:18:47.780Z,47.30
2023-03-12T16:23:50.546Z,53.17
2023-03-12T16:28:53.295Z,49.53
2023-03-12T16:33:58.081Z,39.50
2023-03-12T16:39:00.817Z,39.83
2023-03-12T16:44:04.294Z,42.78
2023-03-12T16:49:12.748Z,40.47
2023-03-12T16:54:15.518Z,43.78
2023-03-12T16:59:25.869Z,35.75
2023-03-12T17:04:30.075Z,38.75
2023-03-12T17:09:32.909Z,44.92
2023-03-12T17:14:35.837Z,36.50
2023-03-12T17:19:39.964Z,41.05
2023-03-12T17:24:42.780Z,40.00
2023-03-12T17:29:45.487Z,35.83
2023-03-12T17:34:55.825Z,32.42
2023-03-12T17:40:01.486Z,33.30
2023-03-12T17:45:05.396Z,27.60
2023-03-12T17:50:10.965Z,35.28
2023-03-12T17:55:13.811Z,32.05
2023-03-12T18:00:17.657Z,31.63
2023-03-12T18:05:21.788Z,36.53
2023-03-12T18:10:24.526Z,31.67
2023-03-12T18:15:27.305Z,34.50
2023-03-12T18:20:38.514Z,32.83
2023-03-12T18:25:42.777Z,29.88
2023-03-12T18:30:46.702Z,37.50
2023-03-12T18:35:53.186Z,35.38
2023-03-12T18:41:04.539Z,37.15
2023-03-12T18:46:08.522Z,38.60
2023-03-12T18:51:12.692Z,39.97
2023-03-12T18:56:15.651Z,39.78
2023-03-12T19:01:18.538Z,36.60
2023-03-12T19:06:22.717Z,31.17
2023-03-12T19:11:26.391Z,39.92
2023-03-12T19:16:29.210Z,38.42
2023-03-12T19:21:33.440Z,34.50
2023-03-12T19:26:36.350Z,47.00
2023-03-12T19:31:39.186Z,40.38
2023-03-12T19:36:43.342Z,42.13
2023-03-12T19:41:46.204Z,45.05
2023-03-12T19:46:49.012Z,42.63
2023-03-12T19:51:53.111Z,38.90
2023-03-12T19:56:55.871Z,41.20
2023-03-12T20:02:00.764Z,48.00
2023-03-12T20:07:04.925Z,36.22
2023-03-12T20:12:08.041Z,54.28
2023-03-12T20:17:12.087Z,39.80
2023-03-12T20:22:16.407Z,34.05
2023-03-12T20:27:19.307Z,31.08
2023-03-12T20:32:22.131Z,31.38
2023-03-12T20:37:26.254Z,29.40
2023-03-12T20:42:29.047Z,30.17
2023-03-12T20:47:34.573Z,27.85
2023-03-12T20:52:38.925Z,46.30
2023-03-12T20:57:41.665Z,33.30
2023-03-12T21:02:44.524Z,27.95
2023-03-12T21:07:48.713Z,44.80
2023-03-12T21:12:51.492Z,23.83
2023-03-12T21:17:54.275Z,22.83
2023-03-12T21:22:58.695Z,26.65
2023-03-12T21:28:01.866Z,27.17
2023-03-12T21:33:04.777Z,29.35
2023-03-12T21:38:08.960Z,19.55
2023-03-12T21:43:11.714Z,30.45
2023-03-12T21:48:14.562Z,26.98
2023-03-12T21:53:23.711Z,19.63
2023-03-12T21:58:28.647Z,27.50
2023-03-12T22:03:31.467Z,26.55
2023-03-12T22:08:36.186Z,17.60
2023-03-12T22:13:39.177Z,31.48
2023-03-12T22:18:43.653Z,22.35
2023-03-12T22:23:50.941Z,18.52
2023-03-12T22:28:55.567Z,21.25
2023-03-12T22:33:58.876Z,26.80
2023-03-12T22:39:03.060Z,26.98
2023-03-12T22:44:07.458Z,19.25
2023-03-12T22:49:10.226Z,30.15
2023-03-12T22:54:14.306Z,20.45
2023-03-12T22:59:17.069Z,26.75
2023-03-12T23:04:19.886Z,22.15
2023-03-12T23:09:24.087Z,33.28
2023-03-12T23:14:26.874Z,31.50
2023-03-12T23:19:33.005Z,20.25
2023-03-12T23:24:37.207Z,15.60
2023-03-12T23:29:40.025Z,21.60
2023-03-12T23:34:42.796Z,23.95
2023-03-12T23:39:54.481Z,26.17
2023-03-12T23:44:57.904Z,25.52
2023-03-12T23:50:00.698Z,29.45
2023-03-12T23:55:05.353Z,16.95
